Time,TemperatureF,DewpointF,PressureIn,WindDirection,WindDirectionDegrees,WindSpeedMPH,WindSpeedGustMPH,Humidity,HourlyPrecipIn,Conditions,Clouds,dailyrainin,SoftwareType,DateUTC
2013-01-19 00:04:00,28.0,28.0,30.44,East,83,0.0,0.0,100,-99.99,,,-99.99,,2013-01-19 05:04:00,
2013-01-19 00:13:00,28.0,28.0,30.44,East,83,0.0,0.0,100,-99.99,,,-99.99,,2013-01-19 05:13:00,
2013-01-19 00:23:00,28.0,28.0,30.44,East,92,0.0,3.0,100,-99.99,,,-99.99,,2013-01-19 05:23:00,
2013-01-19 00:33:00,27.0,27.0,30.43,East,92,0.0,0.0,100,-99.99,,,-99.99,,2013-01-19 05:33:00,
2013-01-19 00:43:00,27.0,27.0,30.43,East,92,0.0,0.0,100,-99.99,,,-99.99,,2013-01-19 05:43:00,
2013-01-19 00:53:00,27.0,27.0,30.43,East,92,0.0,0.0,100,-99.99,,,-99.99,,2013-01-19 05:53:00,
2013-01-19 01:03:00,27.0,27.0,30.42,East,92,0.0,0.0,100,-99.99,,,-99.99,,2013-01-19 06:03:00,
2013-01-19 01:12:00,27.0,27.0,30.42,East,92,0.0,0.0,100,-99.99,,,-99.99,,2013-01-19 06:12:00,
2013-01-19 01:23:00,27.0,27.0,30.42,East,92,0.0,0.0,100,-99.99,,,-99.99,,2013-01-19 06:23:00,
2013-01-19 01:33:00,27.0,27.0,30.43,East,92,0.0,0.0,100,-99.99,,,-99.99,,2013-01-19 06:33:00,
2013-01-19 01:43:00,27.0,27.0,30.43,East,92,0.0,0.0,100,-99.99,,,-99.99,,2013-01-19 06:43:00,
2013-01-19 01:52:00,27.0,27.0,30.43,East,92,0.0,0.0,100,-99.99,,,-99.99,,2013-01-19 06:52:00,
2013-01-19 02:02:00,28.0,28.0,30.43,East,92,0.0,0.0,100,-99.99,,,-99.99,,2013-01-19 07:02:00,
2013-01-19 02:12:00,28.0,28.0,30.43,East,92,0.0,0.0,100,-99.99,,,-99.99,,2013-01-19 07:12:00,
2013-01-19 02:22:00,29.0,29.0,30.43,SSE,158,2.0,0.0,99,-99.99,,,-99.99,,2013-01-19 07:22:00,
2013-01-19 02:33:00,29.0,29.0,30.43,South,169,0.0,0.0,99,-99.99,,,-99.99,,2013-01-19 07:33:00,
2013-01-19 02:43:00,29.0,29.0,30.43,South,169,0.0,0.0,99,-99.99,,,-99.99,,2013-01-19 07:43:00,
2013-01-19 02:53:00,29.0,29.0,30.43,SSW,204,2.0,3.0,99,-99.99,,,-99.99,,2013-01-19 07:53:00,
2013-01-19 03:02:00,29.0,29.0,30.43,SSW,204,0.0,1.0,99,-99.99,,,-99.99,,2013-01-19 08:02:00,
2013-01-19 03:12:00,29.0,29.0,30.43,SSW,204,0.0,1.0,99,-99.99,,,-99.99,,2013-01-19 08:12:00,
2013-01-19 03:22:00,29.0,29.0,30.43,SSW,204,0.0,0.0,99,-99.99,,,-99.99,,2013-01-19 08:22:00,
2013-01-19 03:32:00,28.0,28.0,30.43,SSW,204,0.0,0.0,99,-99.99,,,-99.99,,2013-01-19 08:32:00,
2013-01-19 03:43:00,28.0,28.0,30.43,SSW,204,0.0,0.0,99,-99.99,,,-99.99,,2013-01-19 08:43:00,
2013-01-19 03:53:00,28.0,28.0,30.43,SSW,204,0.0,0.0,99,-99.99,,,-99.99,,2013-01-19 08:53:00,
2013-01-19 04:02:00,27.0,27.0,30.42,SSW,204,0.0,0.0,99,-99.99,,,-99.99,,2013-01-19 09:02:00,
2013-01-19 04:12:00,27.0,27.0,30.42,SSW,204,0.0,0.0,99,-99.99,,,-99.99,,2013-01-19 09:12:00,
2013-01-19 04:23:00,27.0,27.0,30.42,SSW,204,0.0,0.0,99,-99.99,,,-99.99,,2013-01-19 09:23:00,
2013-01-19 04:33:00,27.0,27.0,30.42,South,179,0.0,2.0,100,-99.99,,,-99.99,,2013-01-19 09:33:00,
2013-01-19 04:43:00,27.0,27.0,30.42,South,179,0.0,2.0,100,-99.99,,,-99.99,,2013-01-19 09:43:00,
2013-01-19 04:53:00,29.0,29.0,30.42,SSE,168,6.0,8.0,98,-99.99,,,-99.99,,2013-01-19 09:53:00,
2013-01-19 05:02:00,29.0,28.0,30.42,SE,128,3.0,6.0,97,-99.99,,,-99.99,,2013-01-19 10:02:00,
2013-01-19 05:12:00,29.0,28.0,30.42,SE,128,3.0,6.0,97,-99.99,,,-99.99,,2013-01-19 10:12:00,
2013-01-19 05:23:00,27.0,27.0,30.42,SE,135,2.0,3.0,98,-99.99,,,-99.99,,2013-01-19 10:23:00,
2013-01-19 05:32:00,27.0,27.0,30.42,SSE,163,2.0,6.0,99,-99.99,,,-99.99,,2013-01-19 10:32:00,
2013-01-19 05:43:00,27.0,27.0,30.42,SSE,163,2.0,6.0,99,-99.99,,,-99.99,,2013-01-19 10:43:00,
2013-01-19 05:53:00,27.0,27.0,30.42,SSE,151,1.0,5.0,98,-99.99,,,-99.99,,2013-01-19 10:53:00,
2013-01-19 06:03:00,28.0,28.0,30.42,SSE,151,0.0,3.0,98,-99.99,,,-99.99,,2013-01-19 11:03:00,
2013-01-19 06:12:00,28.0,28.0,30.42,SSE,151,0.0,3.0,98,-99.99,,,-99.99,,2013-01-19 11:12:00,
2013-01-19 06:45:00,32.0,30.0,30.42,SSW,194,4.0,10.0,91,-99.99,,,-99.99,,2013-01-19 11:45:00,
2013-01-19 07:48:00,32.0,29.0,30.41,South,180,4.0,8.0,89,-99.99,,,-99.99,,2013-01-19 12:48:00,
2013-01-19 08:03:00,33.0,29.0,30.41,SE,146,6.0,9.0,85,-99.99,,,-99.99,,2013-01-19 13:03:00,
2013-01-19 08:13:00,33.0,29.0,30.41,SE,146,6.0,9.0,85,-99.99,,,-99.99,,2013-01-19 13:13:00,
2013-01-19 08:23:00,33.0,29.0,30.40,South,179,5.0,7.0,85,-99.99,,,-99.99,,2013-01-19 13:23:00,
2013-01-19 08:33:00,34.0,30.0,30.40,South,179,4.0,9.0,84,-99.99,,,-99.99,,2013-01-19 13:33:00,
2013-01-19 08:43:00,34.0,30.0,30.40,South,179,4.0,9.0,84,-99.99,,,-99.99,,2013-01-19 13:43:00,
2013-01-19 08:53:00,34.0,30.0,30.39,South,189,6.0,9.0,84,-99.99,,,-99.99,,2013-01-19 13:53:00,
2013-01-19 09:03:00,35.0,30.0,30.39,South,182,6.0,10.0,82,-99.99,,,-99.99,,2013-01-19 14:03:00,
2013-01-19 09:12:00,35.0,30.0,30.39,South,182,6.0,10.0,82,-99.99,,,-99.99,,2013-01-19 14:12:00,
2013-01-19 09:23:00,36.0,31.0,30.39,South,169,3.0,12.0,83,-99.99,,,-99.99,,2013-01-19 14:23:00,
2013-01-19 09:34:00,36.0,30.0,30.38,SSE,156,7.0,15.0,80,-99.99,,,-99.99,,2013-01-19 14:34:00,
2013-01-19 09:43:00,36.0,30.0,30.38,SSE,156,7.0,15.0,80,-99.99,,,-99.99,,2013-01-19 14:43:00,
2013-01-19 09:54:00,37.0,30.0,30.39,South,189,6.0,12.0,76,-99.99,,,-99.99,,2013-01-19 14:54:00,
2013-01-19 10:03:00,38.0,31.0,30.38,South,176,7.0,13.0,76,-99.99,,,-99.99,,2013-01-19 15:03:00,
2013-01-19 10:13:00,38.0,31.0,30.38,South,176,7.0,13.0,76,-99.99,,,-99.99,,2013-01-19 15:13:00,
2013-01-19 10:23:00,39.0,31.0,30.38,SSW,193,5.0,14.0,74,-99.99,,,-99.99,,2013-01-19 15:23:00,
2013-01-19 10:33:00,40.0,32.0,30.38,SSE,166,5.0,10.0,72,-99.99,,,-99.99,,2013-01-19 15:33:00,
2013-01-19 10:43:00,40.0,32.0,30.38,SSE,166,5.0,10.0,72,-99.99,,,-99.99,,2013-01-19 15:43:00,
2013-01-19 10:53:00,41.0,34.0,30.37,SSE,162,6.0,12.0,76,-99.99,,,-99.99,,2013-01-19 15:53:00,
2013-01-19 11:03:00,41.0,32.0,30.37,SE,135,10.0,11.0,71,-99.99,,,-99.99,,2013-01-19 16:03:00,
2013-01-19 11:13:00,41.0,32.0,30.37,SE,135,10.0,11.0,71,-99.99,,,-99.99,,2013-01-19 16:13:00,
2013-01-19 11:23:00,42.0,33.0,30.36,SSE,153,7.0,15.0,70,-99.99,,,-99.99,,2013-01-19 16:23:00,
2013-01-19 11:33:00,43.0,34.0,30.34,South,180,9.0,12.0,69,-99.99,,,-99.99,,2013-01-19 16:33:00,
2013-01-19 11:43:00,43.0,34.0,30.34,South,180,9.0,12.0,69,-99.99,,,-99.99,,2013-01-19 16:43:00,
2013-01-19 11:54:00,44.0,34.0,30.33,South,182,9.0,13.0,68,-99.99,,,-99.99,,2013-01-19 16:54:00,
2013-01-19 12:03:00,45.0,34.0,30.32,South,179,9.0,13.0,64,-99.99,,,-99.99,,2013-01-19 17:03:00,
2013-01-19 12:21:00,45.0,34.0,30.32,South,179,9.0,13.0,64,-99.99,,,-99.99,,2013-01-19 17:21:00,
2013-01-19 12:29:00,46.0,36.0,30.31,SSE,158,3.0,13.0,68,-99.99,,,-99.99,,2013-01-19 17:29:00,
2013-01-19 12:35:00,46.0,34.0,30.30,South,179,8.0,16.0,63,-99.99,,,-99.99,,2013-01-19 17:35:00,
2013-01-19 12:49:00,46.0,34.0,30.30,South,179,8.0,16.0,63,-99.99,,,-99.99,,2013-01-19 17:49:00,
2013-01-19 12:55:00,47.0,34.0,30.29,South,183,8.0,13.0,61,-99.99,,,-99.99,,2013-01-19 17:55:00,
2013-01-19 13:12:00,48.0,35.0,30.27,SSW,193,9.0,13.0,60,-99.99,,,-99.99,,2013-01-19 18:12:00,
2013-01-19 13:29:00,48.0,34.0,30.26,SSE,168,8.0,13.0,57,-99.99,,,-99.99,,2013-01-19 18:29:00,
2013-01-19 13:37:00,50.0,36.0,30.25,South,179,6.0,10.0,58,-99.99,,,-99.99,,2013-01-19 18:37:00,
2013-01-19 13:45:00,50.0,36.0,30.25,South,179,6.0,10.0,58,-99.99,,,-99.99,,2013-01-19 18:45:00,
2013-01-19 14:09:00,50.0,34.0,30.22,South,169,8.0,13.0,53,-99.99,,,-99.99,,2013-01-19 19:09:00,
2013-01-19 14:40:00,51.0,37.0,30.20,SSE,152,5.0,9.0,59,-99.99,,,-99.99,,2013-01-19 19:40:00,
2013-01-19 14:48:00,51.0,37.0,30.20,SSE,152,5.0,9.0,59,-99.99,,,-99.99,,2013-01-19 19:48:00,
2013-01-19 14:59:00,51.0,37.0,30.19,East,86,8.0,10.0,59,-99.99,,,-99.99,,2013-01-19 19:59:00,
2013-01-19 15:10:00,51.0,37.0,30.19,SE,128,6.0,12.0,58,-99.99,,,-99.99,,2013-01-19 20:10:00,
2013-01-19 15:20:00,51.0,37.0,30.19,SE,128,6.0,12.0,58,-99.99,,,-99.99,,2013-01-19 20:20:00,
2013-01-19 15:27:00,51.0,36.0,30.18,SSE,168,4.0,14.0,56,-99.99,,,-99.99,,2013-01-19 20:27:00,
2013-01-19 15:38:00,51.0,34.0,30.17,SE,124,6.0,13.0,53,-99.99,,,-99.99,,2013-01-19 20:38:00,
2013-01-19 15:49:00,51.0,34.0,30.17,SE,124,6.0,13.0,53,-99.99,,,-99.99,,2013-01-19 20:49:00,
2013-01-19 15:59:00,52.0,35.0,30.16,SE,134,7.0,12.0,53,-99.99,,,-99.99,,2013-01-19 20:59:00,
2013-01-19 16:07:00,52.0,36.0,30.16,SE,144,5.0,10.0,55,-99.99,,,-99.99,,2013-01-19 21:07:00,
2013-01-19 16:15:00,52.0,36.0,30.16,SE,144,5.0,10.0,55,-99.99,,,-99.99,,2013-01-19 21:15:00,
2013-01-19 16:28:00,51.0,36.0,30.15,South,179,5.0,11.0,57,-99.99,,,-99.99,,2013-01-19 21:28:00,
2013-01-19 16:45:00,51.0,35.0,30.15,SE,146,9.0,12.0,55,-99.99,,,-99.99,,2013-01-19 21:45:00,
2013-01-19 16:52:00,51.0,35.0,30.15,SE,146,9.0,12.0,55,-99.99,,,-99.99,,2013-01-19 21:52:00,
2013-01-19 17:15:00,51.0,36.0,30.15,SSE,149,4.0,7.0,56,-99.99,,,-99.99,,2013-01-19 22:15:00,
2013-01-19 17:28:00,50.0,36.0,30.15,East,96,4.0,7.0,58,-99.99,,,-99.99,,2013-01-19 22:28:00,
2013-01-19 17:35:00,49.0,36.0,30.14,SE,139,3.0,6.0,60,-99.99,,,-99.99,,2013-01-19 22:35:00,
2013-01-19 17:48:00,49.0,36.0,30.14,SE,139,3.0,6.0,60,-99.99,,,-99.99,,2013-01-19 22:48:00,
2013-01-19 17:55:00,48.0,36.0,30.14,SSE,152,4.0,6.0,62,-99.99,,,-99.99,,2013-01-19 22:55:00,
2013-01-19 18:14:00,47.0,36.0,30.14,SE,145,0.0,0.0,66,-99.99,,,-99.99,,2013-01-19 23:14:00,
2013-01-19 18:27:00,46.0,36.0,30.14,SE,130,1.0,0.0,68,-99.99,,,-99.99,,2013-01-19 23:27:00,
2013-01-19 18:35:00,44.0,35.0,30.14,SE,137,0.0,3.0,70,-99.99,,,-99.99,,2013-01-19 23:35:00,
2013-01-19 18:47:00,44.0,35.0,30.14,SE,137,0.0,3.0,70,-99.99,,,-99.99,,2013-01-19 23:47:00,
2013-01-19 19:08:00,44.0,36.0,30.15,SE,137,0.0,0.0,72,-99.99,,,-99.99,,2013-01-20 00:08:00,
2013-01-19 19:16:00,44.0,36.0,30.15,SE,137,0.0,0.0,73,-99.99,,,-99.99,,2013-01-20 00:16:00,
2013-01-19 19:26:00,43.0,35.0,30.15,SE,137,0.0,0.0,73,-99.99,,,-99.99,,2013-01-20 00:26:00,
2013-01-19 19:35:00,42.0,34.0,30.15,SE,137,0.0,0.0,74,-99.99,,,-99.99,,2013-01-20 00:35:00,
2013-01-19 19:58:00,42.0,35.0,30.15,SE,137,0.0,0.0,75,-99.99,,,-99.99,,2013-01-20 00:58:00,
2013-01-19 20:04:00,42.0,36.0,30.15,SE,137,0.0,0.0,78,-99.99,,,-99.99,,2013-01-20 01:04:00,
2013-01-19 20:21:00,42.0,36.0,30.15,SE,137,0.0,0.0,78,-99.99,,,-99.99,,2013-01-20 01:21:00,
2013-01-19 20:27:00,40.0,35.0,30.14,SE,137,0.0,0.0,82,-99.99,,,-99.99,,2013-01-20 01:27:00,
2013-01-19 20:37:00,38.0,34.0,30.14,SE,137,0.0,0.0,85,-99.99,,,-99.99,,2013-01-20 01:37:00,
2013-01-19 20:49:00,38.0,34.0,30.14,SE,137,0.0,0.0,85,-99.99,,,-99.99,,2013-01-20 01:49:00,
2013-01-19 21:04:00,36.0,34.0,30.14,SE,137,0.0,0.0,92,-99.99,,,-99.99,,2013-01-20 02:04:00,
2013-01-19 21:15:00,35.0,34.0,30.14,SE,137,0.0,0.0,96,-99.99,,,-99.99,,2013-01-20 02:15:00,
2013-01-19 21:27:00,34.0,33.0,30.13,SE,137,0.0,0.0,95,-99.99,,,-99.99,,2013-01-20 02:27:00,
2013-01-19 21:36:00,34.0,33.0,30.13,SE,137,0.0,0.0,96,-99.99,,,-99.99,,2013-01-20 02:36:00,
2013-01-19 21:45:00,34.0,33.0,30.13,SE,137,0.0,0.0,96,-99.99,,,-99.99,,2013-01-20 02:45:00,
2013-01-19 21:59:00,33.0,32.0,30.12,SE,137,0.0,0.0,97,-99.99,,,-99.99,,2013-01-20 02:59:00,
2013-01-19 22:08:00,33.0,32.0,30.12,SE,137,0.0,0.0,97,-99.99,,,-99.99,,2013-01-20 03:08:00,
2013-01-19 22:15:00,33.0,32.0,30.12,SE,137,0.0,0.0,97,-99.99,,,-99.99,,2013-01-20 03:15:00,
2013-01-19 22:25:00,37.0,33.0,30.12,South,169,3.0,0.0,86,-99.99,,,-99.99,,2013-01-20 03:25:00,
2013-01-19 22:39:00,38.0,34.0,30.12,SSE,162,1.0,4.0,84,-99.99,,,-99.99,,2013-01-20 03:39:00,
2013-01-19 22:45:00,38.0,34.0,30.12,SSE,162,1.0,4.0,84,-99.99,,,-99.99,,2013-01-20 03:45:00,
2013-01-19 22:58:00,38.0,34.0,30.11,SSE,153,0.0,1.0,85,-99.99,,,-99.99,,2013-01-20 03:58:00,
2013-01-19 23:05:00,37.0,34.0,30.11,SSE,156,2.0,4.0,87,-99.99,,,-99.99,,2013-01-20 04:05:00,
2013-01-19 23:15:00,37.0,34.0,30.11,SSE,156,2.0,4.0,87,-99.99,,,-99.99,,2013-01-20 04:15:00,
2013-01-19 23:27:00,37.0,33.0,30.10,SE,137,2.0,4.0,86,-99.99,,,-99.99,,2013-01-20 04:27:00,
2013-01-19 23:37:00,38.0,34.0,30.10,SE,134,1.0,2.0,84,-99.99,,,-99.99,,2013-01-20 04:37:00,
2013-01-19 23:45:00,38.0,34.0,30.10,SE,134,1.0,2.0,84,-99.99,,,-99.99,,2013-01-20 04:45:00,
2013-01-19 23:59:00,39.0,33.0,30.10,SSE,160,4.0,4.0,80,-99.99,,,-99.99,,2013-01-20 04:59:00,